Time;durP1;ratioP1;P1;durP2;ratioP2;P2;SDS_P1;SDS_P2;PMS_P1;PMS_P2;Temp;Humidity;BMP_temperature;BMP_pressure;BME280_temperature;BME280_humidity;BME280_pressure;Samples;Min_cycle;Max_cycle;Signal;HPM_P1;HPM_P2
2023/03/19 00:01:32;;;;;;;52.27;32.50;;;;;;;;;;762277;184;630143;-79
2023/03/19 00:03:58;;;;;;;52.03;28.80;;;;;;;;;;765427;184;637940;-78
2023/03/19 00:06:24;;;;;;;41.00;25.80;;;;;;;;;;764619;184;641315;-78
2023/03/19 00:08:50;;;;;;;53.53;30.50;;;;;;;;;;759055;184;627698;-78
2023/03/19 00:11:16;;;;;;;53.93;29.43;;;;;;;;;;761303;184;630993;-80
2023/03/19 00:13:42;;;;;;;46.30;27.87;;;;;;;;;;770440;184;627398;-78
2023/03/19 00:16:07;;;;;;;47.60;29.53;;;;;;;;;;765242;182;630835;-79
2023/03/19 00:18:33;;;;;;;47.00;26.23;;;;;;;;;;760071;183;629788;-78
2023/03/19 00:21:00;;;;;;;43.47;26.43;;;;;;;;;;763203;183;634354;-78
2023/03/19 00:23:25;;;;;;;47.67;27.50;;;;;;;;;;756987;184;648398;-78
2023/03/19 00:25:51;;;;;;;41.30;25.97;;;;;;;;;;758736;184;635126;-79
2023/03/19 00:28:17;;;;;;;39.93;26.80;;;;;;;;;;761411;184;626813;-79
2023/03/19 00:30:44;;;;;;;40.80;25.77;;;;;;;;;;764805;184;625052;-79
2023/03/19 00:33:08;;;;;;;40.60;25.07;;;;;;;;;;762542;184;644992;-78
2023/03/19 00:35:34;;;;;;;40.10;25.30;;;;;;;;;;764316;184;625276;-79
2023/03/19 00:38:00;;;;;;;42.03;24.53;;;;;;;;;;766256;183;630271;-77
2023/03/19 00:40:26;;;;;;;47.40;26.23;;;;;;;;;;765822;184;650468;-80
2023/03/19 00:42:52;;;;;;;37.70;24.37;;;;;;;;;;759521;181;640332;-79
2023/03/19 00:45:18;;;;;;;35.73;23.47;;;;;;;;;;768713;184;618625;-78
2023/03/19 00:47:44;;;;;;;34.13;21.93;;;;;;;;;;762619;183;669335;-79
2023/03/19 00:50:10;;;;;;;42.70;24.50;;;;;;;;;;760717;184;617111;-78
2023/03/19 00:52:36;;;;;;;36.53;22.57;;;;;;;;;;766971;184;634300;-78
2023/03/19 00:55:01;;;;;;;30.63;21.27;;;;;;;;;;761325;184;624176;-77
2023/03/19 00:57:27;;;;;;;38.17;22.60;;;;;;;;;;761291;184;636464;-78
2023/03/19 00:59:53;;;;;;;31.87;21.03;;;;;;;;;;758106;184;623668;-78
2023/03/19 01:02:19;;;;;;;34.97;20.07;;;;;;;;;;753630;184;627387;-78
2023/03/19 01:04:45;;;;;;;28.60;18.67;;;;;;;;;;761534;184;626279;-78
2023/03/19 01:07:11;;;;;;;28.60;17.03;;;;;;;;;;760327;182;628883;-78
2023/03/19 01:09:37;;;;;;;29.57;18.20;;;;;;;;;;760929;184;626251;-77
2023/03/19 01:12:03;;;;;;;31.00;17.03;;;;;;;;;;757952;184;626943;-78
2023/03/19 01:14:28;;;;;;;25.80;17.27;;;;;;;;;;755650;184;633934;-79
2023/03/19 01:16:54;;;;;;;28.17;16.60;;;;;;;;;;761744;184;631945;-79
2023/03/19 01:19:20;;;;;;;29.23;16.93;;;;;;;;;;761347;184;623668;-78
2023/03/19 01:21:48;;;;;;;26.80;17.00;;;;;;;;;;761922;184;661396;-77
2023/03/19 01:24:12;;;;;;;23.10;16.57;;;;;;;;;;759572;184;634447;-79
2023/03/19 01:26:38;;;;;;;21.60;15.07;;;;;;;;;;762827;183;630328;-78
2023/03/19 01:29:03;;;;;;;24.67;15.13;;;;;;;;;;767321;183;637703;-79
2023/03/19 01:31:29;;;;;;;22.83;15.97;;;;;;;;;;758898;183;628822;-77
2023/03/19 01:33:55;;;;;;;30.93;19.13;;;;;;;;;;768974;184;630617;-77
2023/03/19 01:36:21;;;;;;;33.70;22.93;;;;;;;;;;760959;184;619452;-77
2023/03/19 01:38:47;;;;;;;31.57;18.17;;;;;;;;;;757382;184;633581;-78
2023/03/19 01:41:13;;;;;;;25.50;16.97;;;;;;;;;;767040;183;615946;-78
2023/03/19 01:43:38;;;;;;;28.70;17.43;;;;;;;;;;761374;184;628929;-77
2023/03/19 01:46:06;;;;;;;24.97;16.20;;;;;;;;;;765334;183;631387;-77
2023/03/19 01:48:35;;;;;;;23.03;16.77;;;;;;;;;;765367;184;628952;-78
2023/03/19 01:51:01;;;;;;;23.57;15.23;;;;;;;;;;758502;184;615090;-79
2023/03/19 01:53:27;;;;;;;28.80;19.27;;;;;;;;;;751691;184;635606;-77
2023/03/19 01:55:53;;;;;;;23.50;15.87;;;;;;;;;;752963;184;623452;-79
2023/03/19 01:58:19;;;;;;;31.10;19.43;;;;;;;;;;768325;184;628972;-78
2023/03/19 02:00:45;;;;;;;25.80;17.20;;;;;;;;;;766580;184;628013;-79
2023/03/19 02:03:11;;;;;;;29.93;18.07;;;;;;;;;;760320;184;640268;-78
2023/03/19 02:05:37;;;;;;;25.60;16.30;;;;;;;;;;768767;184;614600;-77
2023/03/19 02:08:03;;;;;;;22.60;16.80;;;;;;;;;;759520;184;632447;-76
2023/03/19 02:10:28;;;;;;;30.73;20.13;;;;;;;;;;761191;184;630884;-77
2023/03/19 02:12:54;;;;;;;24.87;17.00;;;;;;;;;;762302;184;628536;-78
2023/03/19 02:15:20;;;;;;;22.43;14.97;;;;;;;;;;766852;184;630338;-78
2023/03/19 02:17:46;;;;;;;20.90;14.53;;;;;;;;;;763278;184;627085;-77
2023/03/19 02:20:13;;;;;;;25.33;14.90;;;;;;;;;;765094;181;620536;-80
2023/03/19 02:22:39;;;;;;;33.00;16.23;;;;;;;;;;770194;184;633465;-79
2023/03/19 02:25:07;;;;;;;24.13;14.90;;;;;;;;;;756447;184;639302;-79
2023/03/19 02:27:33;;;;;;;23.43;14.40;;;;;;;;;;761075;184;626571;-79
2023/03/19 02:29:58;;;;;;;23.50;14.87;;;;;;;;;;765603;184;629823;-77
2023/03/19 02:32:24;;;;;;;22.03;15.17;;;;;;;;;;761935;184;617486;-78
2023/03/19 02:34:50;;;;;;;23.27;16.10;;;;;;;;;;762659;184;628873;-78
2023/03/19 02:37:16;;;;;;;20.47;14.00;;;;;;;;;;760414;184;625815;-79
2023/03/19 02:39:50;;;;;;;20.27;12.43;;;;;;;;;;772048;182;631983;-79
2023/03/19 02:42:16;;;;;;;18.90;12.90;;;;;;;;;;760767;183;642880;-80
2023/03/19 02:44:42;;;;;;;20.90;13.07;;;;;;;;;;760478;184;633840;-78
2023/03/19 02:47:08;;;;;;;18.50;12.07;;;;;;;;;;762651;183;617220;-77
2023/03/19 02:49:34;;;;;;;19.63;11.93;;;;;;;;;;767234;183;636775;-78
2023/03/19 02:52:00;;;;;;;19.83;13.80;;;;;;;;;;757164;184;1579609;-77
2023/03/19 02:54:26;;;;;;;20.83;14.20;;;;;;;;;;764199;183;634715;-79
2023/03/19 02:56:52;;;;;;;18.00;12.57;;;;;;;;;;762034;184;634533;-78
2023/03/19 02:59:17;;;;;;;18.07;13.20;;;;;;;;;;759875;184;626095;-77
2023/03/19 03:01:43;;;;;;;19.73;13.13;;;;;;;;;;764284;184;634347;-78
2023/03/19 03:04:09;;;;;;;18.30;11.33;;;;;;;;;;760302;184;618735;-77
2023/03/19 03:06:35;;;;;;;16.70;11.23;;;;;;;;;;761247;185;632023;-77
2023/03/19 03:09:01;;;;;;;15.50;11.23;;;;;;;;;;765538;184;625711;-78
2023/03/19 03:11:27;;;;;;;16.97;12.13;;;;;;;;;;760018;184;619285;-78
2023/03/19 03:13:52;;;;;;;17.60;11.30;;;;;;;;;;768001;183;638182;-77
2023/03/19 03:16:18;;;;;;;16.70;10.90;;;;;;;;;;764281;184;624711;-78
2023/03/19 03:18:44;;;;;;;16.23;11.23;;;;;;;;;;756482;184;639233;-78
2023/03/19 03:21:10;;;;;;;17.90;11.80;;;;;;;;;;764956;184;619571;-77
2023/03/19 03:23:36;;;;;;;21.07;13.00;;;;;;;;;;760570;181;648241;-77
2023/03/19 03:26:02;;;;;;;23.33;13.47;;;;;;;;;;758656;184;632858;-77
2023/03/19 03:28:28;;;;;;;14.43;10.90;;;;;;;;;;765743;184;631020;-79
2023/03/19 03:30:57;;;;;;;15.50;11.70;;;;;;;;;;758112;184;628353;-77
2023/03/19 03:33:24;;;;;;;21.43;11.70;;;;;;;;;;762151;184;642438;-77
2023/03/19 03:35:49;;;;;;;18.03;11.50;;;;;;;;;;756038;184;636795;-78
2023/03/19 03:38:15;;;;;;;18.93;12.17;;;;;;;;;;764853;184;617391;-78
2023/03/19 03:40:41;;;;;;;18.33;13.30;;;;;;;;;;755806;183;641626;-77
2023/03/19 03:43:06;;;;;;;18.90;12.93;;;;;;;;;;759647;184;624974;-79
2023/03/19 03:45:32;;;;;;;60.43;28.90;;;;;;;;;;764688;184;616202;-76
2023/03/19 03:47:58;;;;;;;22.00;13.80;;;;;;;;;;761095;184;637350;-77
2023/03/19 03:50:24;;;;;;;18.50;13.37;;;;;;;;;;764165;183;636164;-78
2023/03/19 03:52:50;;;;;;;24.23;14.40;;;;;;;;;;762813;183;624481;-78
2023/03/19 03:55:16;;;;;;;22.13;14.40;;;;;;;;;;763740;183;637602;-78
2023/03/19 03:57:42;;;;;;;22.83;14.30;;;;;;;;;;763955;183;627758;-77
2023/03/19 04:00:08;;;;;;;18.23;12.23;;;;;;;;;;764476;184;630126;-77
2023/03/19 04:02:34;;;;;;;18.67;11.50;;;;;;;;;;759574;185;629857;-77
2023/03/19 04:05:00;;;;;;;18.20;11.70;;;;;;;;;;756715;184;634811;-78
2023/03/19 04:07:25;;;;;;;21.77;13.10;;;;;;;;;;760807;185;629131;-78
2023/03/19 04:09:51;;;;;;;19.17;12.67;;;;;;;;;;758253;184;630737;-79
2023/03/19 04:12:17;;;;;;;18.17;12.80;;;;;;;;;;762693;184;627400;-77
2023/03/19 04:14:43;;;;;;;24.37;12.77;;;;;;;;;;763447;184;630507;-78
2023/03/19 04:17:09;;;;;;;18.57;10.50;;;;;;;;;;769353;184;630088;-77
2023/03/19 04:19:35;;;;;;;18.40;12.13;;;;;;;;;;765083;184;642275;-77
2023/03/19 04:22:02;;;;;;;19.87;11.70;;;;;;;;;;760126;184;635092;-77
2023/03/19 04:24:27;;;;;;;21.90;11.63;;;;;;;;;;760578;184;631010;-78
2023/03/19 04:26:53;;;;;;;17.67;12.37;;;;;;;;;;770447;183;634084;-77
2023/03/19 04:29:19;;;;;;;17.00;11.53;;;;;;;;;;764058;184;657467;-78
2023/03/19 04:31:44;;;;;;;15.40;10.70;;;;;;;;;;759612;184;668220;-78
2023/03/19 04:34:11;;;;;;;18.73;11.53;;;;;;;;;;768365;182;661679;-78
2023/03/19 04:36:37;;;;;;;16.37;11.20;;;;;;;;;;762159;184;683154;-80
2023/03/19 04:39:02;;;;;;;19.10;11.10;;;;;;;;;;759447;184;652590;-78
2023/03/19 04:41:28;;;;;;;14.83;11.07;;;;;;;;;;767910;184;632535;-78
2023/03/19 04:43:54;;;;;;;15.60;10.70;;;;;;;;;;758854;184;677524;-78
2023/03/19 04:46:20;;;;;;;16.23;9.80;;;;;;;;;;759429;184;655479;-79
2023/03/19 04:48:45;;;;;;;16.20;9.97;;;;;;;;;;761451;184;633890;-78
2023/03/19 04:51:11;;;;;;;17.10;10.60;;;;;;;;;;761533;184;636088;-78
2023/03/19 04:53:38;;;;;;;14.07;9.33;;;;;;;;;;756619;184;628161;-78
2023/03/19 04:56:03;;;;;;;16.13;10.53;;;;;;;;;;762066;183;627005;-78
2023/03/19 04:58:29;;;;;;;16.30;11.67;;;;;;;;;;765590;184;618931;-79
2023/03/19 05:00:55;;;;;;;14.67;10.00;;;;;;;;;;757348;184;638827;-77
2023/03/19 05:03:21;;;;;;;18.93;10.90;;;;;;;;;;763241;181;647038;-79
2023/03/19 05:05:47;;;;;;;15.90;9.10;;;;;;;;;;767153;183;648906;-78
2023/03/19 05:08:12;;;;;;;15.45;10.50;;;;;;;;;;767631;184;676502;-77
2023/03/19 05:10:38;;;;;;;11.60;8.57;;;;;;;;;;760290;184;657250;-77
2023/03/19 05:13:04;;;;;;;14.43;9.73;;;;;;;;;;766504;184;625947;-77
2023/03/19 05:15:30;;;;;;;13.43;9.53;;;;;;;;;;759969;184;634028;-77
2023/03/19 05:17:56;;;;;;;17.57;11.20;;;;;;;;;;758557;184;636185;-79
2023/03/19 05:20:22;;;;;;;14.77;11.10;;;;;;;;;;759446;184;635911;-77
2023/03/19 05:22:48;;;;;;;16.40;11.63;;;;;;;;;;760729;184;644636;-78
2023/03/19 05:25:13;;;;;;;13.77;10.10;;;;;;;;;;759862;184;639106;-79
2023/03/19 05:27:39;;;;;;;16.57;10.67;;;;;;;;;;762189;184;678231;-78
2023/03/19 05:30:06;;;;;;;14.10;9.77;;;;;;;;;;756899;184;678343;-77
2023/03/19 05:32:32;;;;;;;14.10;10.10;;;;;;;;;;763664;184;623073;-77
2023/03/19 05:34:58;;;;;;;13.40;10.80;;;;;;;;;;763738;184;706942;-77
2023/03/19 05:37:23;;;;;;;15.77;9.63;;;;;;;;;;763915;184;646280;-77
2023/03/19 05:39:49;;;;;;;12.83;9.67;;;;;;;;;;757040;184;663944;-78
2023/03/19 05:42:15;;;;;;;16.23;11.43;;;;;;;;;;760848;183;699111;-79
2023/03/19 05:44:41;;;;;;;20.13;14.47;;;;;;;;;;761341;182;629037;-77
2023/03/19 05:47:07;;;;;;;19.73;12.18;;;;;;;;;;760817;181;916183;-78
2023/03/19 05:49:33;;;;;;;23.97;12.23;;;;;;;;;;764582;182;634365;-78
2023/03/19 05:51:59;;;;;;;17.63;11.10;;;;;;;;;;763798;183;633988;-77
2023/03/19 05:54:25;;;;;;;18.30;11.70;;;;;;;;;;766975;184;625881;-78
2023/03/19 05:56:51;;;;;;;29.43;13.53;;;;;;;;;;763670;184;624994;-78
2023/03/19 05:59:17;;;;;;;20.45;14.02;;;;;;;;;;761867;184;931342;-77
2023/03/19 06:01:42;;;;;;;19.13;14.23;;;;;;;;;;762019;184;683946;-77
2023/03/19 06:04:09;;;;;;;17.93;13.60;;;;;;;;;;763627;184;649192;-77
2023/03/19 06:06:35;;;;;;;22.40;16.00;;;;;;;;;;754326;182;881382;-78
2023/03/19 06:09:01;;;;;;;27.97;17.90;;;;;;;;;;759845;184;970412;-79
2023/03/19 06:11:27;;;;;;;24.45;17.30;;;;;;;;;;762443;180;808365;-77
2023/03/19 06:13:53;;;;;;;14.97;11.57;;;;;;;;;;760049;184;1182537;-79
2023/03/19 06:16:18;;;;;;;19.63;11.97;;;;;;;;;;757581;184;1199548;-77
2023/03/19 06:18:45;;;;;;;16.20;10.70;;;;;;;;;;765758;184;624920;-77
2023/03/19 06:21:10;;;;;;;23.60;11.97;;;;;;;;;;765283;184;743560;-78
2023/03/19 06:23:37;;;;;;;18.30;11.80;;;;;;;;;;758844;183;1350325;-78
2023/03/19 06:26:04;;;;;;;18.03;12.33;;;;;;;;;;754465;184;1730322;-78
2023/03/19 06:28:29;;;;;;;14.60;11.10;;;;;;;;;;753278;184;2217506;-79
2023/03/19 06:30:55;;;;;;;13.60;10.68;;;;;;;;;;757277;183;1028098;-78
2023/03/19 06:33:24;;;;;;;14.40;9.20;;;;;;;;;;758895;184;837337;-78
2023/03/19 06:35:50;;;;;;;15.60;8.83;;;;;;;;;;763031;184;717874;-80
2023/03/19 06:38:15;;;;;;;14.50;9.80;;;;;;;;;;757187;184;795854;-78
2023/03/19 06:40:41;;;;;;;14.80;9.68;;;;;;;;;;761235;184;637511;-79
2023/03/19 06:43:08;;;;;;;13.73;8.53;;;;;;;;;;765188;184;629705;-79
2023/03/19 06:45:33;;;;;;;13.27;9.13;;;;;;;;;;763150;184;633126;-79
2023/03/19 06:47:59;;;;;;;13.47;8.87;;;;;;;;;;763324;184;645858;-79
2023/03/19 06:50:26;;;;;;;11.07;7.80;;;;;;;;;;762712;183;640830;-78
2023/03/19 06:52:51;;;;;;;13.60;8.70;;;;;;;;;;759105;183;638781;-79
2023/03/19 06:55:19;;;;;;;11.90;9.43;;;;;;;;;;760446;183;631559;-78
2023/03/19 06:57:42;;;;;;;12.10;8.90;;;;;;;;;;762707;184;680956;-79
2023/03/19 07:00:10;;;;;;;12.77;9.90;;;;;;;;;;762190;184;773692;-79
2023/03/19 07:02:35;;;;;;;12.97;9.60;;;;;;;;;;759682;184;630339;-79
2023/03/19 07:05:00;;;;;;;14.37;10.27;;;;;;;;;;762069;184;639504;-78
2023/03/19 07:07:26;;;;;;;14.10;9.07;;;;;;;;;;764581;184;623491;-79
2023/03/19 07:09:52;;;;;;;15.00;10.23;;;;;;;;;;760461;184;650257;-80
2023/03/19 07:12:18;;;;;;;16.53;9.00;;;;;;;;;;760636;184;631814;-79
2023/03/19 07:14:44;;;;;;;13.07;8.90;;;;;;;;;;764707;184;620326;-78
2023/03/19 07:17:10;;;;;;;12.97;9.00;;;;;;;;;;761602;184;630989;-78
2023/03/19 07:19:35;;;;;;;18.50;9.33;;;;;;;;;;758300;182;815976;-78
2023/03/19 07:22:02;;;;;;;14.70;10.80;;;;;;;;;;759854;184;635308;-79
2023/03/19 07:24:27;;;;;;;14.10;8.47;;;;;;;;;;764044;184;617576;-78
2023/03/19 07:26:53;;;;;;;12.67;8.23;;;;;;;;;;763240;181;656811;-80
2023/03/19 07:29:19;;;;;;;14.80;9.20;;;;;;;;;;762947;183;628536;-78
2023/03/19 07:31:45;;;;;;;13.60;8.73;;;;;;;;;;766543;184;704749;-81
2023/03/19 07:34:11;;;;;;;10.10;7.53;;;;;;;;;;762585;184;733217;-80
2023/03/19 07:36:36;;;;;;;13.67;8.27;;;;;;;;;;758696;184;653554;-78
2023/03/19 07:39:02;;;;;;;11.87;7.60;;;;;;;;;;763643;184;650966;-82
2023/03/19 07:41:28;;;;;;;10.47;6.70;;;;;;;;;;760745;184;624860;-79
2023/03/19 07:43:54;;;;;;;10.37;6.70;;;;;;;;;;764349;183;624914;-80
2023/03/19 07:46:20;;;;;;;8.47;6.03;;;;;;;;;;758467;184;643344;-80
2023/03/19 07:48:46;;;;;;;7.93;6.07;;;;;;;;;;763796;184;627740;-80
2023/03/19 07:51:12;;;;;;;9.13;6.27;;;;;;;;;;758516;184;624289;-78
2023/03/19 07:53:37;;;;;;;6.70;5.30;;;;;;;;;;758352;184;619575;-77
2023/03/19 07:56:03;;;;;;;7.67;5.37;;;;;;;;;;764549;184;628554;-80
2023/03/19 07:58:29;;;;;;;9.20;5.60;;;;;;;;;;763398;184;629036;-78
2023/03/19 08:00:55;;;;;;;8.23;6.00;;;;;;;;;;760689;184;648765;-79
2023/03/19 08:03:21;;;;;;;8.40;5.33;;;;;;;;;;764415;183;636244;-79
2023/03/19 08:05:47;;;;;;;7.83;5.70;;;;;;;;;;760516;184;631675;-78
2023/03/19 08:08:14;;;;;;;7.47;5.60;;;;;;;;;;757229;184;625132;-80
2023/03/19 08:10:39;;;;;;;9.20;5.63;;;;;;;;;;763107;183;633437;-78
2023/03/19 08:13:04;;;;;;;8.17;6.10;;;;;;;;;;762949;184;641802;-78
2023/03/19 08:15:30;;;;;;;7.37;6.00;;;;;;;;;;760857;184;645513;-78
2023/03/19 08:17:56;;;;;;;6.70;4.77;;;;;;;;;;759153;184;676697;-78
2023/03/19 08:20:22;;;;;;;11.43;7.47;;;;;;;;;;745124;189;659332;-80
2023/03/19 08:22:49;;;;;;;8.20;6.00;;;;;;;;;;764794;183;628630;-80
2023/03/19 08:25:14;;;;;;;10.13;5.50;;;;;;;;;;762399;184;635183;-80
2023/03/19 08:27:40;;;;;;;8.30;5.33;;;;;;;;;;765378;184;670136;-79
2023/03/19 08:30:07;;;;;;;9.00;5.80;;;;;;;;;;758487;183;636208;-79
2023/03/19 08:32:32;;;;;;;8.33;5.93;;;;;;;;;;761534;184;630973;-79
2023/03/19 08:34:59;;;;;;;7.90;5.57;;;;;;;;;;765763;183;633509;-79
2023/03/19 08:37:24;;;;;;;11.90;7.60;;;;;;;;;;765302;180;637475;-79
2023/03/19 08:39:51;;;;;;;8.30;5.40;;;;;;;;;;763108;183;654961;-81
2023/03/19 08:42:16;;;;;;;7.73;5.33;;;;;;;;;;762416;183;644669;-80
2023/03/19 08:44:42;;;;;;;7.07;5.43;;;;;;;;;;763407;183;633493;-80
2023/03/19 08:47:07;;;;;;;7.20;5.73;;;;;;;;;;763074;181;633328;-79
2023/03/19 08:49:33;;;;;;;8.10;4.87;;;;;;;;;;764108;181;654982;-80
2023/03/19 08:51:59;;;;;;;9.67;5.93;;;;;;;;;;766660;183;618451;-80
2023/03/19 08:54:25;;;;;;;7.50;5.63;;;;;;;;;;764834;184;652022;-81
2023/03/19 08:56:51;;;;;;;7.83;4.73;;;;;;;;;;761476;183;628689;-80
2023/03/19 08:59:17;;;;;;;7.40;5.60;;;;;;;;;;764995;184;626606;-79
2023/03/19 09:01:43;;;;;;;10.90;5.17;;;;;;;;;;762362;183;629862;-80
2023/03/19 09:04:08;;;;;;;6.83;5.53;;;;;;;;;;759009;184;653903;-78
2023/03/19 09:06:34;;;;;;;7.20;5.70;;;;;;;;;;758715;183;666983;-79
2023/03/19 09:09:00;;;;;;;7.95;5.20;;;;;;;;;;757606;185;674345;-79
2023/03/19 09:11:26;;;;;;;7.60;5.27;;;;;;;;;;755175;184;658464;-79
2023/03/19 09:13:52;;;;;;;8.97;5.20;;;;;;;;;;759346;184;643186;-80
2023/03/19 09:16:18;;;;;;;6.23;4.30;;;;;;;;;;762805;184;619223;-79
2023/03/19 09:18:44;;;;;;;6.23;5.30;;;;;;;;;;761705;184;624271;-80
2023/03/19 09:21:09;;;;;;;6.20;4.93;;;;;;;;;;762104;182;632530;-78
2023/03/19 09:23:35;;;;;;;8.30;5.00;;;;;;;;;;764464;184;635272;-78
2023/03/19 09:26:01;;;;;;;7.33;5.00;;;;;;;;;;761955;184;640148;-78
2023/03/19 09:28:27;;;;;;;7.53;5.27;;;;;;;;;;762814;184;627017;-79
2023/03/19 09:30:53;;;;;;;7.60;5.17;;;;;;;;;;760741;183;629027;-79
2023/03/19 09:33:19;;;;;;;7.00;5.13;;;;;;;;;;760361;185;646086;-80
2023/03/19 09:35:47;;;;;;;6.57;4.80;;;;;;;;;;754366;183;637176;-78
2023/03/19 09:38:13;;;;;;;7.70;5.07;;;;;;;;;;762725;184;615110;-79
2023/03/19 09:40:41;;;;;;;8.33;5.70;;;;;;;;;;766793;183;626101;-79
2023/03/19 09:43:22;;;;;;;8.40;5.00;;;;;;;;;;762987;184;622845;-79
2023/03/19 09:45:47;;;;;;;10.23;4.90;;;;;;;;;;764987;180;641151;-78
2023/03/19 09:48:13;;;;;;;7.70;5.47;;;;;;;;;;762441;184;639227;-81
2023/03/19 09:50:39;;;;;;;8.57;5.43;;;;;;;;;;767656;183;630833;-80
2023/03/19 09:53:21;;;;;;;8.27;5.63;;;;;;;;;;763235;183;639658;-80
2023/03/19 09:55:46;;;;;;;7.03;5.50;;;;;;;;;;765360;182;624227;-78
2023/03/19 09:58:13;;;;;;;6.90;5.40;;;;;;;;;;761974;184;628716;-78
2023/03/19 10:00:39;;;;;;;6.17;5.00;;;;;;;;;;763221;183;630142;-80
2023/03/19 10:03:11;;;;;;;7.90;5.53;;;;;;;;;;758903;184;627975;-79
2023/03/19 10:05:42;;;;;;;7.30;5.10;;;;;;;;;;754755;184;631566;-79
2023/03/19 10:08:24;;;;;;;7.87;5.57;;;;;;;;;;763024;184;632254;-78
2023/03/19 10:10:50;;;;;;;9.27;6.30;;;;;;;;;;754532;183;644587;-78
2023/03/19 10:13:27;;;;;;;5.40;4.50;;;;;;;;;;750341;184;628042;-81
2023/03/19 10:15:53;;;;;;;7.20;5.60;;;;;;;;;;766144;184;626604;-79
2023/03/19 10:18:19;;;;;;;8.63;5.53;;;;;;;;;;760551;183;643409;-79
2023/03/19 10:20:51;;;;;;;12.30;5.17;;;;;;;;;;758804;182;629128;-81
2023/03/19 10:23:32;;;;;;;6.57;4.47;;;;;;;;;;759938;184;647564;-79
2023/03/19 10:25:58;;;;;;;8.17;5.50;;;;;;;;;;761736;184;627247;-79
2023/03/19 10:28:24;;;;;;;9.20;5.10;;;;;;;;;;767913;184;617988;-78
2023/03/19 10:30:52;;;;;;;7.40;5.30;;;;;;;;;;761655;184;623994;-79
2023/03/19 10:33:21;;;;;;;6.43;4.60;;;;;;;;;;763417;184;615619;-80
2023/03/19 10:35:47;;;;;;;5.87;4.60;;;;;;;;;;759406;183;625703;-79
2023/03/19 10:38:16;;;;;;;6.47;4.77;;;;;;;;;;756136;185;626913;-79
2023/03/19 10:40:43;;;;;;;6.60;4.50;;;;;;;;;;754675;183;637159;-80
2023/03/19 10:43:11;;;;;;;7.57;5.83;;;;;;;;;;762038;184;641318;-79
2023/03/19 10:45:37;;;;;;;7.43;5.70;;;;;;;;;;763752;184;630473;-80
2023/03/19 10:48:03;;;;;;;6.40;4.73;;;;;;;;;;759424;184;635597;-78
2023/03/19 10:50:31;;;;;;;10.20;5.87;;;;;;;;;;759027;184;748642;-80
2023/03/19 10:53:07;;;;;;;9.30;5.07;;;;;;;;;;754810;183;1537034;-81
2023/03/19 10:55:32;;;;;;;7.17;5.17;;;;;;;;;;766375;184;650875;-79
2023/03/19 10:58:08;;;;;;;6.20;4.83;;;;;;;;;;762236;184;645546;-78
2023/03/19 11:00:34;;;;;;;8.40;6.07;;;;;;;;;;762135;183;647115;-78
2023/03/19 11:03:03;;;;;;;9.17;6.00;;;;;;;;;;760795;183;629903;-79
2023/03/19 11:05:26;;;;;;;7.87;5.13;;;;;;;;;;765946;183;642142;-79
2023/03/19 11:07:54;;;;;;;6.80;4.83;;;;;;;;;;760437;183;649268;-81
2023/03/19 11:10:19;;;;;;;10.33;5.97;;;;;;;;;;757128;184;720183;-80
2023/03/19 11:12:46;;;;;;;5.80;4.70;;;;;;;;;;761999;183;629108;-80
2023/03/19 11:15:14;;;;;;;6.87;5.40;;;;;;;;;;762122;183;634359;-78
2023/03/19 11:17:41;;;;;;;7.27;5.47;;;;;;;;;;752319;184;701105;-80
2023/03/19 11:20:07;;;;;;;8.10;5.73;;;;;;;;;;761852;184;633790;-81
2023/03/19 11:22:33;;;;;;;8.50;5.07;;;;;;;;;;764582;184;621495;-79
2023/03/19 11:24:59;;;;;;;7.50;4.60;;;;;;;;;;759126;181;630900;-77
2023/03/19 11:27:30;;;;;;;7.53;5.03;;;;;;;;;;761989;184;639082;-79
2023/03/19 11:29:55;;;;;;;8.27;5.93;;;;;;;;;;758640;182;708097;-80
2023/03/19 11:32:22;;;;;;;9.10;6.23;;;;;;;;;;765202;184;664279;-78
2023/03/19 11:34:48;;;;;;;7.83;5.30;;;;;;;;;;762284;184;632573;-80
2023/03/19 11:37:17;;;;;;;8.50;5.77;;;;;;;;;;764485;184;624729;-81
2023/03/19 11:39:44;;;;;;;7.80;5.50;;;;;;;;;;763953;184;624308;-78
2023/03/19 11:42:15;;;;;;;7.80;6.30;;;;;;;;;;761649;181;716375;-80
2023/03/19 11:44:44;;;;;;;6.90;5.50;;;;;;;;;;760159;184;635932;-79
2023/03/19 11:47:15;;;;;;;6.57;5.20;;;;;;;;;;760521;184;634944;-78
2023/03/19 11:49:40;;;;;;;8.90;4.83;;;;;;;;;;762984;184;637285;-78
2023/03/19 11:52:07;;;;;;;7.70;5.87;;;;;;;;;;762884;181;625969;-79
2023/03/19 11:54:39;;;;;;;7.27;5.30;;;;;;;;;;760775;183;634306;-79
2023/03/19 11:57:07;;;;;;;11.40;6.07;;;;;;;;;;762014;184;656951;-78
2023/03/19 11:59:39;;;;;;;8.20;5.47;;;;;;;;;;764605;183;633386;-78
2023/03/19 12:02:21;;;;;;;7.63;5.37;;;;;;;;;;761012;184;628131;-79
2023/03/19 12:04:53;;;;;;;7.57;5.70;;;;;;;;;;760909;184;649155;-79
2023/03/19 12:07:20;;;;;;;10.43;6.00;;;;;;;;;;756594;184;758588;-80
2023/03/19 12:09:49;;;;;;;8.80;6.67;;;;;;;;;;759110;183;633074;-79
2023/03/19 12:12:15;;;;;;;9.57;5.60;;;;;;;;;;760622;182;622179;-79
2023/03/19 12:14:57;;;;;;;7.77;5.67;;;;;;;;;;769054;183;652169;-79
2023/03/19 12:17:38;;;;;;;7.93;6.10;;;;;;;;;;763722;180;624403;-80
2023/03/19 12:20:20;;;;;;;8.40;5.90;;;;;;;;;;761285;182;650453;-79
2023/03/19 12:23:00;;;;;;;7.57;5.77;;;;;;;;;;768495;181;627675;-79
2023/03/19 12:25:28;;;;;;;10.07;6.03;;;;;;;;;;762216;182;719660;-78
2023/03/19 12:27:54;;;;;;;7.97;4.60;;;;;;;;;;761685;184;728243;-81
2023/03/19 12:30:37;;;;;;;6.80;5.90;;;;;;;;;;757956;184;873753;-78
2023/03/19 12:33:04;;;;;;;8.47;5.70;;;;;;;;;;760401;182;638539;-79
2023/03/19 12:35:31;;;;;;;6.83;5.57;;;;;;;;;;767273;183;623314;-80
2023/03/19 12:37:59;;;;;;;7.20;5.40;;;;;;;;;;764588;183;624318;-78
2023/03/19 12:40:26;;;;;;;8.10;5.17;;;;;;;;;;759332;184;630983;-80
2023/03/19 12:42:51;;;;;;;12.60;5.43;;;;;;;;;;761219;184;629506;-80
2023/03/19 12:45:35;;;;;;;8.13;5.50;;;;;;;;;;757875;185;630889;-80
2023/03/19 12:48:03;;;;;;;9.33;6.03;;;;;;;;;;763420;184;623888;-78
2023/03/19 12:50:29;;;;;;;12.07;5.60;;;;;;;;;;757414;184;631424;-80
2023/03/19 12:52:55;;;;;;;8.03;5.37;;;;;;;;;;760059;183;640813;-79
2023/03/19 12:55:21;;;;;;;12.87;6.20;;;;;;;;;;763791;184;618241;-78
2023/03/19 12:57:51;;;;;;;7.33;5.43;;;;;;;;;;760668;184;686511;-78
2023/03/19 13:00:22;;;;;;;7.97;5.73;;;;;;;;;;761321;184;636541;-79
2023/03/19 13:03:06;;;;;;;9.40;5.93;;;;;;;;;;758669;184;641658;-80
2023/03/19 13:05:32;;;;;;;8.87;6.00;;;;;;;;;;757062;184;669178;-80
2023/03/19 13:08:00;;;;;;;8.00;5.27;;;;;;;;;;764108;184;635808;-79
2023/03/19 13:10:26;;;;;;;8.20;5.60;;;;;;;;;;760348;184;635339;-80
2023/03/19 13:12:52;;;;;;;8.23;6.03;;;;;;;;;;761407;184;630861;-79
2023/03/19 13:15:19;;;;;;;8.52;6.18;;;;;;;;;;761451;183;640088;-79
2023/03/19 13:17:47;;;;;;;8.30;5.20;;;;;;;;;;762717;184;659446;-77
2023/03/19 13:20:13;;;;;;;7.10;5.43;;;;;;;;;;758169;184;634928;-78
2023/03/19 13:22:40;;;;;;;11.20;5.50;;;;;;;;;;759532;182;714847;-79
2023/03/19 13:25:05;;;;;;;8.40;5.10;;;;;;;;;;769167;183;636118;-79
2023/03/19 13:27:31;;;;;;;8.80;5.90;;;;;;;;;;757041;183;633947;-78
2023/03/19 13:29:57;;;;;;;10.00;5.70;;;;;;;;;;763211;183;624030;-79
2023/03/19 13:32:33;;;;;;;7.83;5.00;;;;;;;;;;766798;183;658540;-78
2023/03/19 13:35:18;;;;;;;12.90;5.90;;;;;;;;;;759911;184;624458;-79
2023/03/19 13:37:44;;;;;;;6.77;5.60;;;;;;;;;;763753;180;631062;-78
2023/03/19 13:40:16;;;;;;;11.23;5.63;;;;;;;;;;757607;184;721171;-77
2023/03/19 13:42:42;;;;;;;9.00;6.40;;;;;;;;;;759028;184;639594;-79
2023/03/19 13:45:13;;;;;;;10.02;5.85;;;;;;;;;;760680;184;696079;-79
2023/03/19 13:47:39;;;;;;;10.57;5.90;;;;;;;;;;764824;184;623961;-80
2023/03/19 13:50:20;;;;;;;7.17;5.50;;;;;;;;;;762878;184;636501;-80
2023/03/19 13:52:48;;;;;;;6.73;4.67;;;;;;;;;;765474;182;667396;-79
2023/03/19 13:55:18;;;;;;;8.23;5.73;;;;;;;;;;760653;183;637533;-79
2023/03/19 13:57:45;;;;;;;8.37;6.17;;;;;;;;;;762586;182;759878;-79
2023/03/19 14:00:16;;;;;;;8.20;5.77;;;;;;;;;;763490;183;658122;-79
2023/03/19 14:02:44;;;;;;;8.27;5.47;;;;;;;;;;758278;183;633192;-78
2023/03/19 14:05:16;;;;;;;8.17;5.63;;;;;;;;;;758862;182;624545;-79
2023/03/19 14:07:42;;;;;;;9.67;5.23;;;;;;;;;;763313;184;619871;-78
2023/03/19 14:10:14;;;;;;;7.40;5.40;;;;;;;;;;760757;184;626629;-80
2023/03/19 14:12:40;;;;;;;7.30;5.27;;;;;;;;;;757668;184;624112;-78
2023/03/19 14:15:15;;;;;;;7.27;5.47;;;;;;;;;;760443;184;622053;-78